Time;durP1;ratioP1;P1;durP2;ratioP2;P2;SDS_P1;SDS_P2;PMS_P1;PMS_P2;Temp;Humidity;BMP_temperature;BMP_pressure;BME280_temperature;BME280_humidity;BME280_pressure;Samples;Min_cycle;Max_cycle;Signal;HPM_P1;HPM_P2
2024/01/25 00:00:03;;;;;;;2.85;0.85;;;17.90;68.10;;;;;;6066863;23;20248;-83
2024/01/25 00:34:42;;;;;;;1.75;0.50;;;17.80;67.90;;;;;;6151057;23;20642;-83
2024/01/25 01:34:24;;;;;;;0.98;0.57;;;17.80;68.00;;;;;;6156581;23;20195;-82
2024/01/25 03:04:29;;;;;;;0.70;0.50;;;17.70;67.40;;;;;;6152646;22;20620;-84
2024/01/25 03:06:55;;;;;;;0.77;0.52;;;17.70;67.60;;;;;;6160259;23;20147;-82
2024/01/25 03:10:19;;;;;;;1.35;0.57;;;17.70;67.60;;;;;;6186382;23;20154;-84
2024/01/25 03:13:38;;;;;;;1.55;0.65;;;17.70;68.30;;;;;;6037379;23;20230;-82
2024/01/25 04:18:12;;;;;;;0.95;0.40;;;17.70;67.20;;;;;;5981326;24;20167;-83
2024/01/25 04:25:18;;;;;;;0.73;0.52;;;17.70;67.40;;;;;;5810232;24;20635;-81
2024/01/25 04:28:47;;;;;;;;;;;;;;;;;;;;;
2024/01/25 05:31:32;;;;;;;0.95;0.50;;;17.60;66.90;;;;;;6156815;23;20213;-83
2024/01/25 05:34:56;;;;;;;1.02;0.40;;;17.60;67.10;;;;;;6042271;23;20157;-82
2024/01/25 05:37:50;;;;;;;1.23;0.50;;;17.70;67.10;;;;;;6063581;23;20157;-82
2024/01/25 06:00:28;;;;;;;;;;;;;;;;;;;;;
2024/01/25 06:03:27;;;;;;;0.77;0.47;;;17.60;66.90;;;;;;6037253;23;20241;-83
2024/01/25 06:06:54;;;;;;;0.85;0.40;;;17.60;66.70;;;;;;5953173;24;20164;-82
2024/01/25 06:19:02;;;;;;;;;;;;;;;;;;;;;
2024/01/25 06:22:11;;;;;;;0.57;0.50;;;17.70;67.00;;;;;;5951857;24;20247;-81
2024/01/25 06:25:30;;;;;;;;;;;;;;;;;;;;;
2024/01/25 06:28:13;;;;;;;;;;;;;;;;;;;;;
2024/01/25 06:31:03;;;;;;;0.65;0.40;;;17.60;66.70;;;;;;5738395;25;20240;-81
2024/01/25 06:52:33;;;;;;;1.00;0.47;;;17.60;66.70;;;;;;6155607;23;20205;-83
2024/01/25 06:58:47;;;;;;;0.77;0.50;;;17.60;66.70;;;;;;5883579;24;20634;-84
2024/01/25 07:01:13;;;;;;;1.40;0.40;;;17.60;66.50;;;;;;5819931;24;20624;-82
2024/01/25 07:07:03;;;;;;;1.90;0.50;;;17.70;65.80;;;;;;5768122;24;20164;-83
2024/01/25 07:09:40;;;;;;;0.98;0.63;;;17.80;65.60;;;;;;5746959;24;20157;-83
2024/01/25 07:12:09;;;;;;;0.77;0.40;;;17.80;64.70;;;;;;5715791;25;20643;-83
2024/01/25 07:40:55;;;;;;;1.13;0.47;;;17.80;65.20;;;;;;6153211;23;20515;-82
2024/01/25 07:43:31;;;;;;;2.88;0.40;;;17.80;65.30;;;;;;6102250;23;20160;-82
2024/01/25 07:46:06;;;;;;;0.75;0.40;;;17.80;64.70;;;;;;6103455;23;20152;-83
2024/01/25 07:48:38;;;;;;;0.65;0.50;;;17.80;65.10;;;;;;6078837;23;20151;-84
2024/01/25 07:51:36;;;;;;;0.82;0.35;;;17.80;65.40;;;;;;6074431;23;20231;-83
2024/01/25 07:54:12;;;;;;;0.95;0.43;;;17.90;64.30;;;;;;6057480;23;20153;-82
2024/01/25 07:56:52;;;;;;;1.95;0.40;;;17.80;65.40;;;;;;6050959;23;20148;-82
2024/01/25 07:59:21;;;;;;;1.30;0.50;;;17.80;65.00;;;;;;6048882;23;20164;-81
2024/01/25 08:02:21;;;;;;;;;;;;;;;;;;;;;
2024/01/25 08:33:47;;;;;;;;;;;;;;;;;;;;;
2024/01/25 08:36:41;;;;;;;0.73;0.40;;;17.90;63.80;;;;;;6000345;23;20650;-82
2024/01/25 08:39:28;;;;;;;0.75;0.50;;;17.90;64.80;;;;;;5969854;23;20154;-82
2024/01/25 08:42:02;;;;;;;0.40;0.30;;;18.00;64.50;;;;;;5932240;24;20163;-81
2024/01/25 08:58:00;;;;;;;0.40;0.40;;;18.10;63.80;;;;;;6083642;23;20244;-83
2024/01/25 09:04:43;;;;;;;;;;;;;;;;;;;;;
2024/01/25 09:08:02;;;;;;;;;;;;;;;;;;;;;
2024/01/25 09:14:52;;;;;;;1.77;0.50;;;18.10;63.60;;;;;;5900407;24;20201;-82
2024/01/25 09:28:45;;;;;;;8.13;0.60;;;18.10;63.70;;;;;;6149897;23;20218;-81
2024/01/25 09:31:15;;;;;;;4.22;0.70;;;18.10;63.70;;;;;;6137260;23;20166;-80
2024/01/25 09:33:41;;;;;;;9.18;0.88;;;18.10;63.60;;;;;;6130739;23;20147;-81
2024/01/25 09:36:33;;;;;;;8.90;0.88;;;18.20;63.20;;;;;;6107068;23;20151;-82
2024/01/25 09:39:22;;;;;;;5.28;1.05;;;18.20;63.40;;;;;;6066325;23;20181;-82
2024/01/25 09:41:48;;;;;;;3.17;0.60;;;18.10;63.30;;;;;;6015490;23;20522;-80
2024/01/25 09:44:17;;;;;;;9.23;1.20;;;18.20;63.50;;;;;;5990669;23;20165;-82
2024/01/25 09:46:45;;;;;;;8.48;1.08;;;18.20;63.70;;;;;;5981831;24;20155;-83
2024/01/25 09:49:38;;;;;;;8.68;1.40;;;18.10;63.20;;;;;;5935163;24;20203;-79
2024/01/25 09:52:12;;;;;;;9.25;1.38;;;18.20;62.90;;;;;;5955627;24;20258;-82
2024/01/25 09:55:40;;;;;;;;;;;;;;;;;;;;;
2024/01/25 09:58:45;;;;;;;;;;;;;;;;;;;;;
2024/01/25 10:12:06;;;;;;;7.82;0.98;;;18.20;63.60;;;;;;6150574;23;20249;-82
2024/01/25 10:14:43;;;;;;;6.95;1.02;;;18.20;63.30;;;;;;6157018;23;20159;-81
2024/01/25 10:17:19;;;;;;;5.35;0.90;;;18.20;63.50;;;;;;6108937;23;20178;-82
2024/01/25 10:19:52;;;;;;;2.40;0.98;;;18.20;63.50;;;;;;6071641;23;20156;-82
2024/01/25 10:22:24;;;;;;;6.80;0.85;;;18.20;63.40;;;;;;6041893;23;20251;-82
2024/01/25 10:24:59;;;;;;;4.15;0.90;;;18.20;63.40;;;;;;6017775;23;20154;-82
2024/01/25 10:27:36;;;;;;;5.30;0.90;;;18.20;63.30;;;;;;5999724;23;20153;-82
2024/01/25 10:30:04;;;;;;;4.10;0.90;;;18.30;62.60;;;;;;5987466;23;20165;-82
2024/01/25 10:33:08;;;;;;;;;;;;;;;;;;;;;
2024/01/25 10:36:18;;;;;;;3.22;0.75;;;18.30;63.40;;;;;;5989676;23;20284;-80
2024/01/25 10:39:01;;;;;;;5.20;0.80;;;18.30;62.50;;;;;;5945733;23;20162;-81
2024/01/25 10:41:27;;;;;;;6.53;0.88;;;18.20;63.40;;;;;;6004322;23;20460;-81
2024/01/25 10:47:06;;;;;;;4.32;0.65;;;18.20;63.30;;;;;;5899161;24;20162;-79
2024/01/25 10:49:43;;;;;;;2.20;0.77;;;18.20;63.30;;;;;;5854935;24;20165;-81
2024/01/25 10:52:31;;;;;;;4.90;0.68;;;18.20;63.80;;;;;;5900384;24;20421;-81
2024/01/25 10:55:00;;;;;;;2.40;0.80;;;18.30;63.40;;;;;;5903822;24;20165;-82
2024/01/25 10:58:35;;;;;;;7.05;1.00;;;18.20;62.80;;;;;;5899435;24;20238;-80
2024/01/25 11:01:10;;;;;;;8.27;1.33;;;18.20;62.50;;;;;;5818965;24;20348;-79
2024/01/25 11:03:36;;;;;;;6.75;1.02;;;18.30;62.90;;;;;;5840468;24;20159;-80
2024/01/25 11:06:17;;;;;;;1.83;0.80;;;18.30;62.70;;;;;;5819382;24;20213;-79
2024/01/25 11:08:43;;;;;;;4.85;1.08;;;18.30;63.30;;;;;;5819093;24;20534;-79
2024/01/25 11:11:12;;;;;;;6.30;0.93;;;18.30;63.20;;;;;;5819749;24;20233;-80
2024/01/25 11:13:46;;;;;;;6.38;0.90;;;18.20;63.00;;;;;;5819798;24;20167;-79
2024/01/25 11:16:57;;;;;;;2.40;0.80;;;18.20;62.60;;;;;;5822693;24;20163;-81
2024/01/25 11:19:43;;;;;;;3.65;0.80;;;18.20;62.90;;;;;;5821089;24;20616;-83
2024/01/25 11:22:44;;;;;;;1.25;0.68;;;18.30;63.60;;;;;;5820491;24;20174;-81
2024/01/25 11:25:29;;;;;;;2.58;0.73;;;18.30;62.90;;;;;;5912775;24;20190;-83
2024/01/25 11:28:10;;;;;;;1.40;0.60;;;18.20;63.00;;;;;;5879645;23;20166;-81
2024/01/25 11:30:45;;;;;;;2.20;0.68;;;18.30;62.70;;;;;;5965861;23;20154;-81
2024/01/25 11:33:27;;;;;;;5.18;0.77;;;18.30;62.70;;;;;;5965769;23;20344;-81
2024/01/25 11:35:56;;;;;;;3.97;0.80;;;18.30;62.80;;;;;;6052538;23;20532;-81
2024/01/25 11:38:25;;;;;;;1.35;0.60;;;18.30;62.90;;;;;;6107163;23;20260;-79
2024/01/25 11:40:51;;;;;;;2.95;0.75;;;18.20;62.70;;;;;;6132552;23;20222;-82
2024/01/25 11:43:16;;;;;;;7.63;1.00;;;18.30;62.90;;;;;;6107633;23;20182;-79
2024/01/25 11:45:48;;;;;;;3.30;1.10;;;18.20;63.50;;;;;;6084499;23;20306;-81
2024/01/25 11:48:15;;;;;;;1.98;0.70;;;18.20;63.30;;;;;;6083915;23;20152;-81
2024/01/25 11:50:52;;;;;;;2.53;0.73;;;18.20;63.00;;;;;;6083282;23;20148;-82
2024/01/25 11:53:22;;;;;;;3.60;0.65;;;18.20;63.40;;;;;;6108449;23;20170;-80
2024/01/25 11:55:52;;;;;;;5.65;0.70;;;18.20;63.30;;;;;;6134033;23;20595;-82
2024/01/25 11:58:18;;;;;;;5.78;0.90;;;18.30;62.90;;;;;;6075507;23;20544;-82
2024/01/25 12:00:51;;;;;;;2.22;0.60;;;18.30;62.30;;;;;;6058115;23;20149;-82
2024/01/25 12:03:19;;;;;;;4.05;0.70;;;18.30;62.90;;;;;;6068069;23;20255;-83
2024/01/25 12:06:09;;;;;;;3.78;0.90;;;18.30;62.10;;;;;;6068054;23;20616;-83
2024/01/25 12:08:41;;;;;;;6.00;1.08;;;18.20;62.40;;;;;;6069312;23;20228;-79
2024/01/25 12:11:08;;;;;;;5.20;0.85;;;18.30;63.70;;;;;;6044126;23;20724;-81
2024/01/25 12:13:43;;;;;;;3.22;0.70;;;18.20;63.00;;;;;;6068204;23;20590;-82
2024/01/25 12:16:10;;;;;;;1.08;0.60;;;18.20;63.60;;;;;;6070068;23;20157;-80
2024/01/25 12:18:57;;;;;;;1.38;0.63;;;18.10;63.60;;;;;;6068077;23;20177;-82
2024/01/25 12:21:25;;;;;;;2.85;0.93;;;18.20;62.60;;;;;;6020622;23;20157;-84
2024/01/25 12:23:51;;;;;;;4.43;0.90;;;18.20;63.20;;;;;;5992277;23;20154;-81
2024/01/25 12:26:29;;;;;;;5.93;0.77;;;18.20;63.60;;;;;;5993402;23;20154;-81
2024/01/25 12:29:02;;;;;;;4.60;0.70;;;18.20;63.40;;;;;;6028008;23;20158;-81
2024/01/25 12:31:28;;;;;;;5.20;0.90;;;18.20;61.80;;;;;;6067307;23;20275;-83
2024/01/25 12:33:54;;;;;;;2.42;0.50;;;18.20;62.90;;;;;;6078760;23;20341;-82
2024/01/25 12:36:20;;;;;;;4.78;0.70;;;18.20;62.40;;;;;;6102836;23;20136;-80
2024/01/25 12:38:59;;;;;;;1.55;0.57;;;18.20;62.50;;;;;;6103032;23;20148;-81
2024/01/25 12:45:24;;;;;;;2.05;0.80;;;18.20;63.00;;;;;;6126580;23;20551;-78
2024/01/25 12:47:50;;;;;;;2.00;0.60;;;18.20;62.70;;;;;;6127436;23;20140;-80
2024/01/25 12:50:54;;;;;;;2.15;0.80;;;18.30;62.30;;;;;;6079123;23;20152;-82
2024/01/25 12:53:20;;;;;;;1.35;0.52;;;18.30;62.70;;;;;;6048607;23;20240;-83
2024/01/25 12:55:52;;;;;;;1.92;0.77;;;18.20;63.30;;;;;;6051932;23;20172;-80
2024/01/25 12:58:30;;;;;;;2.67;0.63;;;18.30;61.20;;;;;;6053011;23;20163;-82
2024/01/25 13:01:03;;;;;;;4.72;0.65;;;18.30;62.00;;;;;;6053113;23;20140;-80
2024/01/25 13:03:30;;;;;;;1.95;0.57;;;18.30;62.70;;;;;;6029491;23;20155;-81
2024/01/25 13:05:58;;;;;;;1.23;0.57;;;18.30;62.80;;;;;;6026515;23;20160;-81
2024/01/25 13:08:24;;;;;;;4.57;0.80;;;18.40;61.90;;;;;;6052165;23;20157;-83
2024/01/25 13:10:52;;;;;;;1.52;0.50;;;18.40;61.60;;;;;;6051407;23;20316;-82
2024/01/25 13:13:20;;;;;;;1.83;0.55;;;18.40;61.90;;;;;;6052137;23;20505;-80
2024/01/25 13:19:48;;;;;;;1.42;0.50;;;18.40;61.40;;;;;;5797192;24;20239;-83
2024/01/25 13:22:25;;;;;;;1.50;0.77;;;18.30;61.60;;;;;;5751697;24;20246;-81
2024/01/25 13:25:05;;;;;;;1.00;0.60;;;18.40;62.00;;;;;;5796743;24;20158;-82
2024/01/25 13:27:52;;;;;;;1.80;0.95;;;18.30;62.80;;;;;;5825966;24;20173;-81
2024/01/25 13:30:22;;;;;;;2.00;0.88;;;18.40;62.70;;;;;;5824314;24;20600;-83
2024/01/25 13:32:52;;;;;;;2.33;0.52;;;18.40;62.50;;;;;;5803995;24;20214;-82
2024/01/25 13:35:23;;;;;;;2.28;0.60;;;18.40;63.20;;;;;;5824447;24;20163;-85
2024/01/25 13:37:52;;;;;;;2.00;0.50;;;18.40;63.70;;;;;;5820195;24;20155;-83
2024/01/25 13:40:53;;;;;;;1.35;0.50;;;18.40;62.80;;;;;;5799300;24;20159;-84
2024/01/25 13:47:46;;;;;;;3.22;0.60;;;18.40;62.30;;;;;;5767035;24;20196;-82
2024/01/25 13:50:31;;;;;;;4.03;0.70;;;18.40;62.40;;;;;;5693401;25;20510;-82
2024/01/25 13:53:25;;;;;;;0.60;0.50;;;18.40;61.70;;;;;;5740155;25;20796;-84
2024/01/25 13:56:46;;;;;;;;;;;;;;;;;;;;;
2024/01/25 17:32:18;;;;;;;3.75;0.90;;;19.00;62.80;;;;;;6198545;22;20205;-85
2024/01/25 17:34:43;;;;;;;5.85;0.90;;;18.90;63.60;;;;;;6118222;23;20178;-83
2024/01/25 17:37:39;;;;;;;7.68;0.98;;;18.90;64.30;;;;;;6141252;23;20146;-85
2024/01/25 17:40:30;;;;;;;7.72;0.80;;;18.80;65.30;;;;;;6118494;23;20150;-87
2024/01/25 17:43:06;;;;;;;2.50;0.80;;;18.80;64.80;;;;;;6055938;23;20157;-85
2024/01/25 17:45:32;;;;;;;7.25;1.10;;;18.70;65.00;;;;;;6030888;23;20160;-84
2024/01/25 17:47:58;;;;;;;5.45;0.93;;;18.80;65.00;;;;;;6076782;23;20168;-86
2024/01/25 17:50:26;;;;;;;6.43;1.00;;;18.70;64.70;;;;;;6052897;23;20190;-85
2024/01/25 18:23:33;;;;;;;2.15;1.05;;;18.90;66.10;;;;;;5911189;23;20161;-86
2024/01/25 18:26:00;;;;;;;7.43;1.00;;;18.90;66.00;;;;;;5906625;24;20162;-83
2024/01/25 18:28:29;;;;;;;4.97;0.80;;;18.90;65.90;;;;;;5904544;24;20260;-82
2024/01/25 18:30:56;;;;;;;2.10;0.60;;;18.90;65.80;;;;;;5855797;24;20166;-82
2024/01/25 18:33:25;;;;;;;4.00;0.70;;;18.90;64.90;;;;;;5891064;24;20200;-82
2024/01/25 18:36:02;;;;;;;2.30;0.77;;;18.90;65.10;;;;;;6005241;23;20180;-83
2024/01/25 18:38:35;;;;;;;5.28;1.00;;;18.80;64.10;;;;;;5994758;23;20237;-84
2024/01/25 18:41:14;;;;;;;3.78;0.73;;;18.80;63.80;;;;;;6017617;23;20579;-81
2024/01/25 18:43:46;;;;;;;2.35;0.50;;;18.80;62.90;;;;;;5996273;23;20154;-89
2024/01/25 18:46:52;;;;;;;;;;;;;;;;;;;;;
2024/01/25 18:49:24;;;;;;;2.33;0.68;;;18.80;62.60;;;;;;5902804;24;20233;-86
2024/01/25 18:51:50;;;;;;;3.45;0.90;;;18.80;60.90;;;;;;5940916;24;20239;-84
2024/01/25 18:54:22;;;;;;;1.58;0.55;;;18.90;61.30;;;;;;5985600;23;20155;-84
2024/01/25 18:56:53;;;;;;;1.10;0.57;;;18.80;62.40;;;;;;5990676;23;20577;-86
2024/01/25 18:59:30;;;;;;;1.42;0.60;;;18.90;62.10;;;;;;5947491;24;20282;-85
2024/01/25 19:02:00;;;;;;;1.65;0.63;;;18.80;61.90;;;;;;5963170;24;20165;-85
2024/01/25 19:04:27;;;;;;;1.65;0.60;;;18.80;61.50;;;;;;5917594;24;20166;-84
2024/01/25 19:06:56;;;;;;;3.65;0.60;;;18.90;61.60;;;;;;5962866;24;20183;-86
2024/01/25 19:09:26;;;;;;;1.83;0.70;;;18.90;63.30;;;;;;5962774;24;20492;-82
2024/01/25 19:11:52;;;;;;;1.90;0.70;;;18.90;62.10;;;;;;5963972;24;20186;-83
2024/01/25 19:14:18;;;;;;;1.42;0.40;;;18.80;62.20;;;;;;5940659;24;20155;-84
2024/01/25 19:16:44;;;;;;;1.08;0.40;;;18.80;62.70;;;;;;5972065;23;20459;-83
2024/01/25 19:19:17;;;;;;;2.92;0.60;;;18.80;62.30;;;;;;5997927;23;20193;-85
2024/01/25 19:21:55;;;;;;;1.00;0.45;;;18.90;64.20;;;;;;6023236;23;20157;-83
2024/01/25 19:24:26;;;;;;;1.75;0.60;;;18.90;63.20;;;;;;6047182;23;20153;-84
2024/01/25 19:26:54;;;;;;;3.80;0.70;;;18.90;62.40;;;;;;6024539;23;20261;-84
2024/01/25 19:29:23;;;;;;;3.10;0.73;;;18.80;64.00;;;;;;5988562;23;20165;-83
2024/01/25 19:32:04;;;;;;;2.95;0.50;;;18.80;64.10;;;;;;6163192;23;20171;-84
2024/01/25 19:34:32;;;;;;;1.38;0.70;;;18.80;64.50;;;;;;6140476;23;20161;-84
2024/01/25 19:37:18;;;;;;;1.95;0.60;;;18.80;63.30;;;;;;6115269;23;20155;-83
2024/01/25 19:39:49;;;;;;;2.85;0.68;;;18.80;63.90;;;;;;6164792;23;20158;-82
2024/01/25 19:42:15;;;;;;;2.30;0.55;;;18.80;64.50;;;;;;6141465;23;20138;-83
2024/01/25 19:45:06;;;;;;;3.05;0.60;;;18.80;64.20;;;;;;6140285;23;20139;-83
2024/01/25 19:47:35;;;;;;;3.35;0.70;;;18.80;64.80;;;;;;6147070;23;20592;-83
2024/01/25 19:50:19;;;;;;;1.90;0.70;;;18.80;64.10;;;;;;6163859;23;20176;-83
2024/01/25 19:52:59;;;;;;;1.27;0.60;;;18.80;64.30;;;;;;6144491;23;20189;-83
2024/01/25 19:55:29;;;;;;;3.22;0.60;;;18.80;65.40;;;;;;6090487;23;20190;-84
2024/01/25 19:58:06;;;;;;;3.15;0.68;;;18.80;64.80;;;;;;6104138;23;20180;-84
2024/01/25 20:00:48;;;;;;;1.95;0.57;;;18.80;65.50;;;;;;6106332;23;20201;-82
2024/01/25 20:03:17;;;;;;;1.95;0.60;;;18.70;64.50;;;;;;5958004;24;20152;-82
2024/01/25 20:05:48;;;;;;;4.68;0.80;;;18.80;65.30;;;;;;5957760;24;20156;-85
2024/01/25 20:08:15;;;;;;;2.85;0.60;;;18.80;64.90;;;;;;5934981;24;20167;-84
2024/01/25 20:10:45;;;;;;;1.77;0.70;;;18.80;64.90;;;;;;5959291;24;20155;-84
2024/01/25 20:13:28;;;;;;;2.88;0.73;;;18.80;65.20;;;;;;5934977;24;20651;-84
2024/01/25 20:15:55;;;;;;;2.90;0.60;;;18.70;64.50;;;;;;5933700;24;20305;-82
2024/01/25 20:18:21;;;;;;;2.00;0.65;;;18.90;65.00;;;;;;5935935;24;20167;-84
2024/01/25 20:20:47;;;;;;;3.65;0.55;;;18.80;64.70;;;;;;5934504;24;20156;-82
2024/01/25 20:23:18;;;;;;;1.27;0.43;;;18.80;65.20;;;;;;5933679;24;20246;-84
2024/01/25 20:25:46;;;;;;;1.40;0.50;;;18.70;65.30;;;;;;5933409;24;20208;-82
2024/01/25 20:28:16;;;;;;;1.27;0.45;;;18.80;64.20;;;;;;5946108;23;20242;-82
2024/01/25 20:30:42;;;;;;;2.30;0.50;;;18.80;63.20;;;;;;5942157;23;20525;-83
2024/01/25 20:33:07;;;;;;;3.65;0.60;;;18.80;64.00;;;;;;5996286;23;20194;-81
2024/01/25 20:45:55;;;;;;;1.80;0.40;;;18.70;64.10;;;;;;6153232;23;20210;-82
2024/01/25 20:48:22;;;;;;;2.47;0.70;;;18.70;65.10;;;;;;6132191;23;20158;-84
2024/01/25 20:50:51;;;;;;;2.13;1.05;;;18.60;64.50;;;;;;6159302;23;20136;-83
2024/01/25 20:53:17;;;;;;;1.45;0.70;;;18.60;65.30;;;;;;6084139;23;20210;-84
2024/01/25 20:55:43;;;;;;;1.23;0.57;;;18.60;65.30;;;;;;6158088;23;20508;-81
2024/01/25 20:58:09;;;;;;;1.60;0.80;;;18.50;66.40;;;;;;6157404;23;20132;-85
2024/01/25 21:00:37;;;;;;;1.25;0.60;;;18.50;67.10;;;;;;6132332;23;20140;-83
2024/01/25 21:14:17;;;;;;;1.17;0.60;;;18.40;67.30;;;;;;6149261;23;20183;31
2024/01/25 21:16:42;;;;;;;1.67;0.63;;;18.40;67.70;;;;;;6073898;23;20177;-83
2024/01/25 21:19:09;;;;;;;1.23;0.70;;;18.40;67.80;;;;;;6103553;23;20143;-81
2024/01/25 21:21:34;;;;;;;1.50;0.70;;;18.40;67.60;;;;;;6103772;23;20590;-83
2024/01/25 21:24:00;;;;;;;2.40;0.50;;;18.40;67.60;;;;;;6102469;23;20133;-84
2024/01/25 21:26:27;;;;;;;0.98;0.57;;;18.40;68.10;;;;;;6079984;23;20215;-83
2024/01/25 21:28:53;;;;;;;1.30;0.50;;;18.40;67.50;;;;;;6079702;23;20278;-81
2024/01/25 21:31:18;;;;;;;0.80;0.60;;;18.40;67.00;;;;;;6079073;23;20603;-84
2024/01/25 21:33:46;;;;;;;1.83;0.60;;;18.30;67.80;;;;;;6103380;23;20466;-83
2024/01/25 21:36:12;;;;;;;0.52;0.50;;;18.30;67.70;;;;;;6102300;23;20143;-82
2024/01/25 21:38:38;;;;;;;1.70;0.50;;;18.30;67.80;;;;;;6078928;23;20156;-84
2024/01/25 21:41:07;;;;;;;1.10;0.70;;;18.30;68.00;;;;;;6129704;23;20139;-83
2024/01/25 21:43:33;;;;;;;1.88;0.70;;;18.20;68.20;;;;;;6053574;23;20159;-83
2024/01/25 21:46:01;;;;;;;1.75;0.50;;;18.30;67.90;;;;;;6126810;23;20492;-81
2024/01/25 21:48:26;;;;;;;0.75;0.45;;;18.30;67.80;;;;;;6029606;23;20596;-84
2024/01/25 21:50:52;;;;;;;1.38;0.65;;;18.20;67.30;;;;;;6103298;23;20364;-85
2024/01/25 21:53:22;;;;;;;1.27;0.60;;;18.30;67.30;;;;;;6128419;23;20191;-84
2024/01/25 21:55:48;;;;;;;1.15;0.57;;;18.40;67.30;;;;;;6078322;23;20160;-82
2024/01/25 21:58:13;;;;;;;1.73;0.63;;;18.30;67.30;;;;;;6079207;23;20654;-84
2024/01/25 22:00:39;;;;;;;0.52;0.52;;;18.30;67.60;;;;;;6102474;23;20140;-84
2024/01/25 22:03:05;;;;;;;0.93;0.60;;;18.30;67.70;;;;;;6103236;23;20144;-82
2024/01/25 22:05:30;;;;;;;0.60;0.50;;;18.30;67.70;;;;;;6101801;23;20133;-80
2024/01/25 22:07:56;;;;;;;2.10;0.77;;;18.20;67.80;;;;;;6102732;23;20136;-82
2024/01/25 22:10:22;;;;;;;0.98;0.50;;;18.20;67.70;;;;;;6079109;23;20476;-84
2024/01/25 22:12:48;;;;;;;0.93;0.50;;;18.30;67.80;;;;;;6079806;23;20637;-82
2024/01/25 22:15:14;;;;;;;0.70;0.55;;;18.20;67.80;;;;;;6078480;23;20246;-80
2024/01/25 22:17:40;;;;;;;1.08;0.70;;;18.20;67.70;;;;;;6078695;23;20163;-85
2024/01/25 22:20:06;;;;;;;4.07;0.60;;;18.30;67.40;;;;;;6078828;23;20144;-84
2024/01/25 22:22:33;;;;;;;3.00;0.80;;;18.20;67.70;;;;;;6102549;23;20132;-82
2024/01/25 22:24:59;;;;;;;1.67;0.85;;;18.20;68.10;;;;;;6102098;23;20132;-84
2024/01/25 22:27:25;;;;;;;0.85;0.60;;;18.20;67.80;;;;;;6103607;23;20136;-82
2024/01/25 22:29:51;;;;;;;4.38;0.80;;;18.20;67.80;;;;;;6102470;23;20156;-83
2024/01/25 22:32:17;;;;;;;0.47;0.40;;;18.20;67.70;;;;;;6078619;23;20183;-82
2024/01/25 22:34:43;;;;;;;2.55;0.65;;;18.20;67.80;;;;;;6078600;23;20148;-82
2024/01/25 22:37:09;;;;;;;2.38;0.55;;;18.10;67.80;;;;;;6102754;23;20144;-83
2024/01/25 22:39:35;;;;;;;1.10;0.60;;;18.20;68.00;;;;;;6102683;23;20136;-83
2024/01/25 22:42:01;;;;;;;1.58;0.68;;;18.20;67.90;;;;;;6103334;23;20137;-82
2024/01/25 22:44:32;;;;;;;0.93;0.52;;;18.20;67.80;;;;;;6078018;23;20198;-84
2024/01/25 22:46:58;;;;;;;1.23;0.60;;;18.10;68.00;;;;;;6079477;23;20267;-82
2024/01/25 22:49:24;;;;;;;1.38;0.50;;;18.20;68.10;;;;;;6078836;23;20188;-82
2024/01/25 22:51:53;;;;;;;0.80;0.47;;;18.10;68.10;;;;;;6079361;23;20172;-81
2024/01/25 22:54:22;;;;;;;2.45;0.50;;;18.10;68.40;;;;;;6053438;23;20152;-82
2024/01/25 22:56:48;;;;;;;0.70;0.50;;;18.10;68.10;;;;;;6053924;23;20172;-81
2024/01/25 22:59:16;;;;;;;1.02;0.52;;;18.10;68.10;;;;;;6103594;23;20164;-83
2024/01/25 23:01:42;;;;;;;0.60;0.60;;;18.00;68.40;;;;;;6053387;23;20184;-82
2024/01/25 23:04:11;;;;;;;0.52;0.47;;;18.10;68.10;;;;;;6102880;23;20133;-81
2024/01/25 23:06:39;;;;;;;2.70;0.80;;;18.00;68.40;;;;;;6077721;23;20152;-82
2024/01/25 23:09:08;;;;;;;1.25;0.50;;;18.10;67.70;;;;;;6076591;23;20152;-82
2024/01/25 23:11:34;;;;;;;0.90;0.50;;;18.10;68.40;;;;;;6054972;23;20198;-84
2024/01/25 23:14:00;;;;;;;0.95;0.50;;;18.10;68.50;;;;;;6103063;23;20600;-82
2024/01/25 23:16:27;;;;;;;0.43;0.38;;;18.10;68.40;;;;;;6079742;23;20152;-85
2024/01/25 23:18:57;;;;;;;1.63;0.50;;;18.10;68.00;;;;;;6029611;23;20662;-82
2024/01/25 23:26:24;;;;;;;2.08;0.52;;;18.00;68.50;;;;;;6148714;23;20184;-81
2024/01/25 23:28:50;;;;;;;0.82;0.60;;;18.00;68.20;;;;;;6161317;23;20642;-81
2024/01/25 23:31:18;;;;;;;1.10;0.55;;;18.00;68.30;;;;;;6136728;23;20151;-81
2024/01/25 23:33:44;;;;;;;1.30;0.55;;;18.00;68.20;;;;;;6187232;23;20127;-81
2024/01/25 23:38:46;;;;;;;0.93;0.50;;;18.00;68.20;;;;;;6155505;23;20202;-83
2024/01/25 23:41:12;;;;;;;0.52;0.40;;;18.00;68.30;;;;;;6157991;23;20436;-81
2024/01/25 23:43:38;;;;;;;1.80;0.60;;;18.00;68.20;;;;;;6158337;23;20154;-81
2024/01/25 23:46:04;;;;;;;1.25;0.68;;;18.00;69.10;;;;;;6157881;23;20132;-83
2024/01/25 23:48:29;;;;;;;0.50;0.50;;;18.00;68.50;;;;;;6162237;23;20131;-82
2024/01/25 23:50:55;;;;;;;0.50;0.50;;;18.00;68.40;;;;;;6139321;23;20139;-81
2024/01/25 23:53:21;;;;;;;2.35;0.70;;;18.00;68.30;;;;;;6138752;23;20614;-84
